• Join FlightAware (Why Join?)
  • Login
  • US Flag 
02:23AM EDT


 

Airport Tracker/Info


-or-


 

Live Flight TrackerFlight Track Log ✈ JZA8874 ✈ 22-Apr-2012 ✈ CYUL - CYHZ

Flight Track Log - Related Links

Times and Time Zones

All times are in EDT time to prevent confusion due to time zone crossing. See the JZA8874 flight status page for this flight to view local times or setup timezone preferences in your user account.

Time Position Orientation Groundspeed Altitude Reporting Facility
EDT Latitude Longitude Course Direction KTS MPH feet Rate Location/Type
05:29PM 45.4500 -73.7167 35° Northeast 10 12 100  Level Montreal Center
05:31PM 45.4667 -73.7000 46° Northeast 120 138 1,100 1,080 Climbing Montreal Center
05:32PM 45.5000 -73.6500 110° East 160 184 3,500 2,040 Climbing Montreal Center
05:33PM 45.4833 -73.5833 115° Southeast 190 219 5,200 2,220 Climbing Montreal Center
05:34PM 45.4500 -73.4833 103° East 250 288 8,000 2,520 Climbing Montreal Center
05:35PM 45.4333 -73.3833 110° East 270 311 10,300 1,620 Climbing Montreal Center
05:36PM 45.4000 -73.2500 99° East 310 357 11,300 1,200 Climbing Montreal Center
05:37PM 45.3833 -73.1000 90° East 370 426 12,700 1,800 Climbing Montreal Center
05:38PM 45.3833 -72.9667 90° East 390 449 15,000 2,280 Climbing Montreal Center
05:39PM 45.3833 -72.8000 90° East 390 449 17,300 1,800 Climbing Montreal Center
05:40PM 45.3833 -72.6500 90° East 400 460 18,700 1,500 Climbing Montreal Center
05:41PM 45.3833 -72.4667 90° East 420 483 20,400 1,620 Climbing Montreal Center
05:42PM 45.3833 -72.3000 98° East 430 495 22,000 1,500 Climbing Montreal Center
05:43PM 45.3667 -72.1333 82° East 440 506 23,400 1,260 Climbing Montreal Center
05:44PM 45.3833 -71.9667 90° East 450 518 24,600 1,260 Climbing Montreal Center
05:45PM 45.3833 -71.7667 97° East 460 529 26,000 1,260 Climbing Montreal Center
05:46PM 45.3667 -71.5833 83° East 460 529 27,200 1,020 Climbing Montreal Center
05:47PM 45.3833 -71.3833 97° East 470 541 28,100 780 Climbing Montreal Center
05:48PM 45.3667 -71.2000 85° East 490 564 28,800 780 Climbing Montreal Center
05:49PM 45.3758 -71.0603 93° East 481 554 29,600 1,080 Climbing Boston Center
05:50PM 45.3669 -70.8508 95° East 486 559 30,900 1,140 Climbing Boston Center
05:51PM 45.3558 -70.6533 94° East 492 566 31,900 960 Climbing Boston Center
05:52PM 45.3464 -70.4586 95° East 497 572 32,900 900 Climbing Boston Center
05:53PM 45.3344 -70.2611 95° East 497 572 33,800 900 Climbing Boston Center
05:54PM 45.3222 -70.0639 94° East 497 572 34,800 840 Climbing Boston Center
05:55PM 45.3119 -69.8694 95° East 497 572 35,500 660 Climbing Boston Center
05:56PM 45.2992 -69.6722 95° East 502 578 36,200 540 Climbing Boston Center
05:57PM 45.2858 -69.4694 95° East 502 578 36,600 360 Climbing Boston Center
05:58PM 45.2753 -69.3075 95° East 507 583 37,000 180 Climbing Boston Center
05:59PM 45.2606 -69.0814 95° East 514 592 37,000  Level Boston Center
06:00PM 45.2481 -68.8697 96° East 526 605 37,000  Level Boston Center
06:01PM 45.2331 -68.6614 96° East 532 612 37,000  Level Boston Center
06:02PM 45.2178 -68.4558 96° East 532 612 37,000  Level Boston Center
06:03PM 45.2022 -68.2536 96° East 532 612 37,000  Level Boston Center
06:04PM 45.1856 -68.0281 104° East 527 606 37,000  Level Boston Center
06:05PM 45.1500 -67.8333 90° East 520 598 37,000  Level Moncton Center
06:06PM 45.1500 -67.6167 102° East 530 610 37,000  Level Moncton Center
06:07PM 45.1167 -67.4000 97° East 530 610 37,000  Level Moncton Center
06:08PM 45.1000 -67.2167 90° East 530 610 37,000  Level Moncton Center
06:09PM 45.1000 -67.0000 104° East 520 598 37,000 -60 Level Moncton Center
06:10PM 45.0667 -66.8167 96° East 520 598 36,900 -600 Descending Moncton Center
06:11PM 45.0500 -66.6000 96° East 520 598 35,800 -960 Descending Moncton Center
06:12PM 45.0333 -66.3833 97° East 530 610 35,000 -420 Descending Moncton Center
06:13PM 45.0167 -66.2000 96° East 520 598 35,000  Level Moncton Center
06:14PM 45.0000 -65.9833 97° East 520 598 35,000 -240 Level Moncton Center
06:15PM 44.9833 -65.8000 102° East 520 598 34,600 -1,800 Descending Moncton Center
06:16PM 44.9500 -65.5833 97° East 520 598 31,400 -3,000 Descending Moncton Center
06:17PM 44.9333 -65.3833 97° East 500 575 28,600 -2,700 Descending Moncton Center
06:18PM 44.9167 -65.2000 97° East 490 564 26,000 -2,700 Descending Moncton Center
06:19PM 44.9000 -65.0167 90° East 480 552 23,300 -2,580 Descending Moncton Center
06:20PM 44.9000 -64.8167 90° East 470 541 20,900 -2,520 Descending Moncton Center
06:21PM 44.9000 -64.6333 90° East 460 529 18,300 -2,520 Descending Moncton Center
06:22PM 44.9000 -64.4667 74° East 440 506 15,900 -2,340 Descending Moncton Center
06:23PM 44.9333 -64.3000 80° East 420 483 13,700 -1,980 Descending Moncton Center
06:24PM 44.9500 -64.1667 81° East 390 449 12,000 -1,500 Descending Moncton Center
06:25PM 44.9667 -64.0167 79° East 360 414 10,800 -1,380 Descending Moncton Center
06:26PM 44.9833 -63.9000 68° East 330 380 9,300 -1,560 Descending Moncton Center
06:27PM 45.0167 -63.7833 81° East 330 380 7,700 -1,560 Descending Moncton Center
06:28PM 45.0333 -63.6333 74° East 310 357 6,200 -1,500 Descending Moncton Center
06:29PM 45.0500 -63.5500 90° East 300 345 4,700 -1,500 Descending Moncton Center
06:30PM 45.0500 -63.4333 133° Southeast 290 334 3,300 -1,140 Descending Moncton Center
06:31PM 45.0167 -63.3833 193° South 230 265 2,500 -600 Descending Moncton Center
06:32PM 44.9667 -63.4000 215° Southwest 190 219 2,200 -480 Descending Moncton Center
06:33PM 44.9167 -63.4500 215° Southwest 170 196 1,600 -660 Descending Moncton Center
06:34PM 44.8833 -63.4833 200° South 150 173 900 -600 Descending Moncton Center
06:35PM 44.8500 -63.5000 215° Southwest 150 173 500 -240 Descending Moncton Center
06:36PM 44.8333 -63.5167 215° Southwest 110 127 500  Level Moncton Center